createdAt,value
2022-08-28T00:00:54.691Z,2.72
2022-08-28T00:03:21.366Z,2.97
2022-08-28T00:05:47.886Z,3.25
2022-08-28T00:08:15.489Z,3.10
2022-08-28T00:10:42.503Z,3.13
2022-08-28T00:13:15.662Z,3.38
2022-08-28T00:15:42.505Z,3.58
2022-08-28T00:18:09.188Z,3.47
2022-08-28T00:20:36.779Z,3.10
2022-08-28T00:23:04.250Z,2.83
2022-08-28T00:25:31.448Z,3.50
2022-08-28T00:28:00.745Z,3.25
2022-08-28T00:30:35.774Z,3.22
2022-08-28T00:33:06.665Z,3.63
2022-08-28T00:35:33.555Z,2.92
2022-08-28T00:38:00.933Z,3.20
2022-08-28T00:40:32.845Z,3.08
2022-08-28T00:43:01.646Z,3.05
2022-08-28T00:45:29.440Z,3.20
2022-08-28T00:47:56.419Z,3.13
2022-08-28T00:50:28.060Z,3.58
2022-08-28T00:53:00.838Z,3.40
2022-08-28T00:55:28.722Z,3.35
2022-08-28T00:57:59.541Z,3.10
2022-08-28T01:00:33.895Z,3.25
2022-08-28T01:03:01.569Z,3.38
2022-08-28T01:05:29.664Z,3.40
2022-08-28T01:07:58.905Z,3.38
2022-08-28T01:10:28.303Z,3.53
2022-08-28T01:12:56.325Z,3.60
2022-08-28T01:15:31.597Z,3.50
2022-08-28T01:18:08.267Z,3.78
2022-08-28T01:20:38.317Z,4.22
2022-08-28T01:23:40.621Z,4.20
2022-08-28T01:26:11.662Z,3.50
2022-08-28T01:28:39.018Z,3.63
2022-08-28T01:31:06.048Z,3.60
2022-08-28T01:33:32.722Z,4.05
2022-08-28T01:35:59.549Z,3.78
2022-08-28T01:38:27.819Z,3.45
2022-08-28T01:40:57.457Z,3.45
2022-08-28T01:43:27.386Z,3.40
2022-08-28T01:45:57.633Z,3.47
2022-08-28T01:48:26.141Z,3.70
2022-08-28T01:50:53.132Z,3.00
2022-08-28T01:53:25.008Z,3.17
2022-08-28T01:55:53.723Z,3.28
2022-08-28T01:58:21.686Z,2.95
2022-08-28T02:00:49.046Z,3.10
2022-08-28T02:03:16.143Z,3.15
2022-08-28T02:05:43.729Z,3.03
2022-08-28T02:08:10.382Z,2.95
2022-08-28T02:10:39.130Z,2.72
2022-08-28T02:13:07.361Z,2.92
2022-08-28T02:15:36.767Z,3.00
2022-08-28T02:18:04.149Z,2.90
2022-08-28T02:20:31.202Z,3.10
2022-08-28T02:22:58.202Z,3.33
2022-08-28T02:25:25.863Z,3.40
2022-08-28T02:27:52.895Z,3.28
2022-08-28T02:30:19.943Z,2.63
2022-08-28T02:32:46.910Z,2.70
2022-08-28T02:35:16.433Z,3.30
2022-08-28T02:37:45.449Z,2.85
2022-08-28T02:40:16.927Z,3.00
2022-08-28T02:42:44.225Z,2.90
2022-08-28T02:45:12.472Z,3.17
2022-08-28T02:47:41.027Z,3.42
2022-08-28T02:50:09.878Z,3.28
2022-08-28T02:52:37.647Z,3.53
2022-08-28T02:55:07.559Z,3.67
2022-08-28T02:57:35.367Z,3.10
2022-08-28T03:00:05.654Z,3.47
2022-08-28T03:02:32.213Z,3.10
2022-08-28T03:05:00.803Z,3.20
2022-08-28T03:07:28.817Z,3.42
2022-08-28T03:09:55.589Z,3.15
2022-08-28T03:12:25.730Z,3.20
2022-08-28T03:14:53.046Z,3.15
2022-08-28T03:17:20.199Z,3.22
2022-08-28T03:19:46.874Z,2.70
2022-08-28T03:22:13.546Z,3.03
2022-08-28T03:24:40.179Z,3.25
2022-08-28T03:27:06.848Z,3.20
2022-08-28T03:29:33.528Z,3.47
2022-08-28T03:32:00.508Z,2.80
2022-08-28T03:34:27.197Z,2.75
2022-08-28T03:36:54.254Z,3.20
2022-08-28T03:39:20.862Z,3.17
2022-08-28T03:41:47.378Z,3.58
2022-08-28T03:44:14.163Z,3.17
2022-08-28T03:46:41.005Z,3.13
2022-08-28T03:49:07.704Z,3.45
2022-08-28T03:51:34.638Z,3.13
2022-08-28T03:54:04.270Z,3.42
2022-08-28T03:56:31.327Z,3.33
2022-08-28T03:59:02.132Z,3.20
2022-08-28T04:01:29.038Z,2.88
2022-08-28T04:03:56.382Z,3.33
2022-08-28T04:06:23.164Z,3.20
2022-08-28T04:08:51.223Z,3.28
2022-08-28T04:11:18.291Z,3.25
2022-08-28T04:13:45.147Z,2.97
2022-08-28T04:16:14.174Z,2.63
2022-08-28T04:18:43.169Z,3.17
2022-08-28T04:21:19.294Z,3.22
2022-08-28T04:23:47.319Z,3.13
2022-08-28T04:26:17.131Z,3.08
2022-08-28T04:28:44.211Z,3.10
2022-08-28T04:31:10.815Z,2.90
2022-08-28T04:33:38.595Z,2.80
2022-08-28T04:36:08.491Z,2.92
2022-08-28T04:38:35.172Z,3.08
2022-08-28T04:41:06.589Z,3.28
2022-08-28T04:43:33.672Z,2.90
2022-08-28T04:46:05.400Z,3.28
2022-08-28T04:48:31.966Z,2.92
2022-08-28T04:50:58.783Z,2.80
2022-08-28T04:53:25.739Z,3.22
2022-08-28T04:55:55.067Z,3.33
2022-08-28T04:58:24.113Z,2.78
2022-08-28T05:00:52.341Z,3.05
2022-08-28T05:03:19.387Z,3.53
2022-08-28T05:05:53.702Z,2.92
2022-08-28T05:08:23.390Z,2.60
2022-08-28T05:10:51.065Z,2.63
2022-08-28T05:13:18.656Z,2.63
2022-08-28T05:15:47.825Z,2.85
2022-08-28T05:18:15.889Z,2.22
2022-08-28T05:20:45.714Z,2.50
2022-08-28T05:23:13.281Z,2.55
2022-08-28T05:25:43.516Z,2.80
2022-08-28T05:28:12.282Z,2.58
2022-08-28T05:30:41.985Z,2.85
2022-08-28T05:33:10.432Z,2.72
2022-08-28T05:35:38.946Z,2.63
2022-08-28T05:38:06.728Z,2.65
2022-08-28T05:40:34.578Z,2.90
2022-08-28T05:43:01.278Z,2.75
2022-08-28T05:45:27.952Z,2.70
2022-08-28T05:47:54.550Z,3.10
2022-08-28T05:50:21.466Z,3.33
2022-08-28T05:52:48.224Z,2.95
2022-08-28T05:55:14.916Z,3.55
2022-08-28T05:57:41.891Z,3.20
2022-08-28T06:00:13.651Z,3.08
2022-08-28T06:02:42.150Z,2.90
2022-08-28T06:05:12.867Z,2.95
2022-08-28T06:07:41.208Z,2.83
2022-08-28T06:10:10.540Z,3.30
2022-08-28T06:12:37.760Z,3.00
2022-08-28T06:15:06.186Z,2.90
2022-08-28T06:17:32.919Z,3.25
2022-08-28T06:19:59.539Z,2.92
2022-08-28T06:22:26.280Z,3.17
2022-08-28T06:24:53.123Z,2.97
2022-08-28T06:27:19.848Z,2.78
2022-08-28T06:29:46.550Z,3.38
2022-08-28T06:32:13.511Z,3.10
2022-08-28T06:34:40.433Z,2.88
2022-08-28T06:37:08.252Z,2.83
2022-08-28T06:39:34.807Z,2.65
2022-08-28T06:42:01.470Z,3.13
2022-08-28T06:44:28.285Z,2.83
2022-08-28T06:46:55.677Z,2.20
2022-08-28T06:49:22.909Z,2.63
2022-08-28T06:51:49.843Z,2.50
2022-08-28T06:54:22.386Z,2.70
2022-08-28T06:56:50.931Z,2.80
2022-08-28T06:59:17.458Z,2.58
2022-08-28T07:01:44.069Z,1.80
2022-08-28T07:04:12.174Z,2.00
2022-08-28T07:06:41.187Z,2.22
2022-08-28T07:09:11.354Z,2.25
2022-08-28T07:11:39.327Z,2.17
2022-08-28T07:14:06.461Z,2.00
2022-08-28T07:16:38.543Z,2.13
2022-08-28T07:19:07.681Z,2.25
2022-08-28T07:21:38.330Z,2.22
2022-08-28T07:24:07.066Z,1.70
2022-08-28T07:26:35.710Z,1.90
2022-08-28T07:29:10.159Z,2.30
2022-08-28T07:31:43.111Z,2.05
2022-08-28T07:34:11.641Z,1.98
2022-08-28T07:36:39.140Z,1.85
2022-08-28T07:39:07.146Z,1.95
2022-08-28T07:41:37.461Z,1.90
2022-08-28T07:44:22.747Z,1.70
2022-08-28T07:46:57.416Z,2.30
2022-08-28T07:49:25.455Z,1.80
2022-08-28T07:51:55.515Z,2.00
2022-08-28T07:54:23.694Z,1.80
2022-08-28T07:56:51.258Z,1.80
2022-08-28T07:59:22.074Z,2.03
2022-08-28T08:01:51.804Z,1.70
2022-08-28T08:04:20.393Z,1.92
2022-08-28T08:06:53.236Z,2.00
2022-08-28T08:09:22.384Z,2.13
2022-08-28T08:11:52.445Z,1.80
2022-08-28T08:14:21.523Z,1.63
2022-08-28T08:16:48.709Z,1.50
2022-08-28T08:19:19.092Z,1.55
2022-08-28T08:21:56.716Z,1.80
2022-08-28T08:24:28.518Z,1.60
2022-08-28T08:27:01.328Z,1.98
2022-08-28T08:29:33.782Z,1.73
2022-08-28T08:32:08.069Z,1.75
2022-08-28T08:34:38.703Z,1.73
2022-08-28T08:37:06.119Z,2.38
2022-08-28T08:39:36.905Z,2.03
2022-08-28T08:42:09.602Z,1.70
2022-08-28T08:44:40.636Z,1.77
2022-08-28T08:47:30.580Z,1.75
2022-08-28T08:49:58.685Z,1.85
2022-08-28T08:52:43.725Z,2.00
2022-08-28T08:55:30.004Z,1.90
2022-08-28T08:58:10.967Z,2.08
2022-08-28T09:00:58.589Z,1.95
2022-08-28T09:04:16.492Z,2.10
2022-08-28T09:06:55.487Z,2.28
2022-08-28T09:09:45.133Z,1.70
2022-08-28T09:12:24.880Z,2.05
2022-08-28T09:15:10.371Z,2.08
2022-08-28T09:17:51.427Z,1.67
2022-08-28T09:20:32.438Z,1.80
2022-08-28T09:23:08.520Z,2.10
2022-08-28T09:26:06.088Z,2.00
2022-08-28T09:28:37.824Z,1.60
2022-08-28T09:31:09.826Z,1.85
2022-08-28T09:33:50.037Z,1.85
2022-08-28T09:36:37.730Z,1.90
2022-08-28T09:39:15.980Z,1.92
2022-08-28T09:42:10.184Z,1.90
2022-08-28T09:44:50.891Z,1.73
2022-08-28T09:47:46.354Z,2.15
2022-08-28T09:50:38.959Z,1.45
2022-08-28T09:53:11.729Z,2.00
2022-08-28T09:55:53.794Z,1.52
2022-08-28T09:58:22.092Z,1.63
2022-08-28T10:01:11.280Z,1.80
2022-08-28T10:03:48.242Z,1.98
2022-08-28T10:06:26.535Z,1.70
2022-08-28T10:09:19.336Z,2.08
2022-08-28T10:12:17.146Z,2.00
2022-08-28T10:15:19.173Z,1.70
2022-08-28T10:17:55.030Z,1.55
2022-08-28T10:20:59.209Z,1.88
2022-08-28T10:23:38.760Z,1.85
2022-08-28T10:26:23.617Z,1.85
2022-08-28T10:29:01.261Z,1.65
2022-08-28T10:31:39.943Z,2.00
2022-08-28T10:34:20.419Z,2.10
2022-08-28T10:37:01.152Z,1.55
2022-08-28T10:39:36.384Z,1.42
2022-08-28T10:42:07.535Z,2.17
2022-08-28T10:44:55.324Z,2.00
2022-08-28T10:47:35.659Z,1.80
2022-08-28T10:50:14.256Z,1.52
2022-08-28T10:52:49.029Z,1.52
2022-08-28T10:55:23.411Z,1.38
2022-08-28T10:57:53.315Z,1.58
2022-08-28T11:00:30.772Z,1.58
2022-08-28T11:03:34.406Z,1.70
2022-08-28T11:06:27.966Z,1.60
2022-08-28T11:09:20.797Z,1.50
2022-08-28T11:11:49.234Z,1.40
2022-08-28T11:14:25.970Z,1.30
2022-08-28T11:16:59.670Z,1.50
2022-08-28T11:19:43.891Z,1.40
2022-08-28T11:22:17.864Z,1.52
2022-08-28T11:24:55.937Z,1.60
2022-08-28T11:27:35.064Z,1.30
2022-08-28T11:30:16.802Z,1.40
2022-08-28T11:32:52.694Z,1.40
2022-08-28T11:38:05.443Z,1.73
2022-08-28T11:40:32.103Z,1.52
2022-08-28T11:43:18.376Z,1.42
2022-08-28T11:45:48.008Z,1.50
2022-08-28T11:48:33.558Z,1.48
2022-08-28T11:51:07.069Z,1.70
2022-08-28T11:53:54.885Z,1.35
2022-08-28T11:56:39.159Z,1.77
2022-08-28T11:59:35.761Z,1.25
2022-08-28T12:02:36.959Z,1.88
2022-08-28T12:05:17.992Z,1.40
2022-08-28T12:07:49.942Z,1.52
2022-08-28T12:10:22.624Z,1.58
2022-08-28T12:12:57.286Z,1.52
2022-08-28T12:15:29.940Z,1.50
2022-08-28T12:18:11.958Z,1.20
2022-08-28T12:20:59.896Z,1.50
2022-08-28T12:23:59.151Z,1.40
2022-08-28T12:26:39.966Z,1.50
2022-08-28T12:29:27.349Z,1.50
2022-08-28T12:32:11.640Z,1.48
2022-08-28T12:34:49.773Z,1.50
2022-08-28T12:37:51.902Z,1.60
2022-08-28T12:40:24.700Z,1.30
2022-08-28T12:43:00.863Z,1.42
2022-08-28T12:45:40.682Z,1.50
2022-08-28T12:48:17.764Z,1.50
2022-08-28T12:50:47.031Z,1.60
2022-08-28T12:53:17.402Z,1.70
2022-08-28T12:55:46.613Z,1.63
2022-08-28T12:58:33.627Z,2.00
2022-08-28T13:01:05.597Z,1.70
2022-08-28T13:03:36.034Z,1.48
2022-08-28T13:06:09.265Z,1.75
2022-08-28T13:08:37.546Z,2.35
2022-08-28T13:11:04.629Z,2.25
2022-08-28T13:13:38.626Z,2.10
2022-08-28T13:16:14.883Z,1.48
2022-08-28T13:18:50.356Z,1.55
2022-08-28T13:21:32.739Z,1.65
2022-08-28T13:24:20.643Z,1.65
2022-08-28T13:29:22.045Z,1.40
2022-08-28T13:31:59.355Z,1.58
2022-08-28T13:34:29.142Z,1.30
2022-08-28T13:37:01.962Z,1.65
2022-08-28T13:39:34.513Z,1.60
2022-08-28T13:42:08.571Z,1.67
2022-08-28T13:44:50.767Z,1.40
2022-08-28T13:47:17.744Z,1.58
2022-08-28T13:49:44.547Z,1.80
2022-08-28T13:52:11.649Z,1.40
2022-08-28T13:54:39.172Z,1.65
2022-08-28T13:57:10.030Z,1.60
2022-08-28T13:59:36.815Z,1.77
2022-08-28T14:02:25.892Z,2.05
2022-08-28T14:04:53.155Z,1.73
2022-08-28T14:07:20.028Z,1.77
2022-08-28T14:09:46.692Z,1.40
2022-08-28T14:12:13.224Z,1.45
2022-08-28T14:14:40.582Z,1.48
2022-08-28T14:17:08.895Z,1.83
2022-08-28T14:19:36.478Z,1.50
2022-08-28T14:22:03.337Z,1.50
2022-08-28T14:24:29.970Z,1.65
2022-08-28T14:26:57.026Z,1.10
2022-08-28T14:29:23.740Z,1.17
2022-08-28T14:31:50.750Z,1.48
2022-08-28T14:34:20.914Z,1.60
2022-08-28T14:36:51.135Z,1.40
2022-08-28T14:39:17.983Z,1.67
2022-08-28T14:41:46.814Z,1.50
2022-08-28T14:44:13.814Z,1.40
2022-08-28T14:46:44.072Z,1.55
2022-08-28T14:49:13.411Z,1.33
2022-08-28T14:51:42.473Z,1.45
2022-08-28T14:54:11.090Z,1.23
2022-08-28T14:56:38.048Z,1.40
2022-08-28T14:59:06.956Z,1.48
2022-08-28T15:01:40.662Z,1.10
2022-08-28T15:04:14.714Z,1.20
2022-08-28T15:06:44.700Z,1.15
2022-08-28T15:09:13.610Z,1.30
2022-08-28T15:11:42.323Z,1.38
2022-08-28T15:14:09.707Z,1.75
2022-08-28T15:16:46.495Z,1.45
2022-08-28T15:19:17.732Z,1.15
2022-08-28T15:21:54.219Z,1.52
2022-08-28T15:24:28.635Z,1.30
2022-08-28T15:26:55.393Z,1.55
2022-08-28T15:29:21.916Z,1.50
2022-08-28T15:31:50.300Z,1.67
2022-08-28T15:34:23.118Z,1.35
2022-08-28T15:36:55.191Z,1.67
2022-08-28T15:39:42.487Z,1.58
2022-08-28T15:44:36.687Z,1.30
2022-08-28T15:47:04.937Z,1.55
2022-08-28T15:49:36.138Z,1.17
2022-08-28T15:52:06.115Z,1.30
2022-08-28T15:54:33.074Z,1.20
2022-08-28T15:57:00.331Z,1.50
2022-08-28T15:59:38.069Z,1.15
2022-08-28T16:02:14.471Z,1.70
2022-08-28T16:04:41.207Z,1.35
2022-08-28T16:07:08.011Z,1.30
2022-08-28T16:09:34.992Z,1.30
2022-08-28T16:12:01.592Z,1.23
2022-08-28T16:14:28.461Z,1.17
2022-08-28T16:16:55.174Z,1.20
2022-08-28T16:19:21.829Z,1.25
2022-08-28T16:21:48.846Z,1.45
2022-08-28T16:24:15.443Z,1.20
2022-08-28T16:26:42.391Z,1.73
2022-08-28T16:29:09.285Z,1.20
2022-08-28T16:31:36.193Z,1.30
2022-08-28T16:34:05.612Z,1.38
2022-08-28T16:36:33.342Z,1.13
2022-08-28T16:39:04.073Z,1.00
2022-08-28T16:41:31.963Z,1.50
2022-08-28T16:43:59.047Z,1.05
2022-08-28T16:46:27.691Z,1.60
2022-08-28T16:48:55.139Z,1.20
2022-08-28T16:51:26.731Z,1.52
2022-08-28T16:53:54.552Z,1.50
2022-08-28T16:56:23.652Z,1.15
2022-08-28T16:58:53.029Z,1.23
2022-08-28T17:01:24.090Z,1.30
2022-08-28T17:03:52.916Z,1.52
2022-08-28T17:06:23.630Z,1.20
2022-08-28T17:08:56.410Z,1.27
2022-08-28T17:11:27.588Z,1.10
2022-08-28T17:13:55.334Z,1.30
2022-08-28T17:16:23.895Z,1.10
2022-08-28T17:18:52.578Z,1.15
2022-08-28T17:21:39.485Z,1.30
2022-08-28T17:24:06.850Z,1.13
2022-08-28T17:26:33.969Z,1.00
2022-08-28T17:29:00.707Z,1.42
2022-08-28T17:31:27.666Z,1.30
2022-08-28T17:33:54.345Z,1.13
2022-08-28T17:36:32.539Z,1.58
2022-08-28T17:39:02.506Z,1.20
2022-08-28T17:41:29.224Z,1.30
2022-08-28T17:43:58.203Z,1.20
2022-08-28T17:46:25.849Z,1.30
2022-08-28T17:48:56.190Z,1.25
2022-08-28T17:51:42.702Z,1.48
2022-08-28T17:54:16.699Z,1.35
2022-08-28T17:56:44.158Z,1.58
2022-08-28T17:59:11.853Z,1.58
2022-08-28T18:01:39.504Z,1.30
2022-08-28T18:04:06.188Z,1.35
2022-08-28T18:06:33.775Z,1.20
2022-08-28T18:09:00.686Z,1.40
2022-08-28T18:11:28.349Z,1.60
2022-08-28T18:14:04.526Z,1.65
2022-08-28T18:16:32.791Z,1.65
2022-08-28T18:19:05.378Z,1.58
2022-08-28T18:21:33.509Z,1.52
2022-08-28T18:24:00.150Z,1.45
2022-08-28T18:26:26.854Z,1.40
2022-08-28T18:28:53.658Z,1.60
2022-08-28T18:31:20.453Z,1.77
2022-08-28T18:33:47.193Z,1.55
2022-08-28T18:36:15.079Z,1.25
2022-08-28T18:38:42.693Z,1.40
2022-08-28T18:41:10.914Z,1.60
2022-08-28T18:43:37.788Z,1.23
2022-08-28T18:46:06.138Z,1.67
2022-08-28T18:48:36.236Z,1.40
2022-08-28T18:51:06.196Z,1.55
2022-08-28T18:53:32.891Z,1.52
2022-08-28T18:56:00.255Z,1.30
2022-08-28T18:58:29.318Z,1.38
2022-08-28T19:00:57.090Z,1.80
2022-08-28T19:03:23.736Z,1.90
2022-08-28T19:05:51.364Z,1.70
2022-08-28T19:08:17.967Z,1.65
2022-08-28T19:10:47.521Z,2.03
2022-08-28T19:13:14.740Z,1.65
2022-08-28T19:15:41.642Z,1.65
2022-08-28T19:18:08.681Z,1.55
2022-08-28T19:20:35.480Z,1.55
2022-08-28T19:23:02.104Z,1.52
2022-08-28T19:25:30.776Z,1.52
2022-08-28T19:27:59.681Z,1.80
2022-08-28T19:30:28.850Z,1.80
2022-08-28T19:32:56.006Z,1.70
2022-08-28T19:35:24.540Z,1.88
2022-08-28T19:37:52.558Z,1.90
2022-08-28T19:40:20.713Z,1.50
2022-08-28T19:42:50.121Z,1.40
2022-08-28T19:45:17.959Z,1.70
2022-08-28T19:47:44.925Z,1.77
2022-08-28T19:50:13.990Z,1.70
2022-08-28T19:52:46.501Z,1.65
2022-08-28T19:55:18.194Z,1.40
2022-08-28T19:57:46.837Z,1.85
2022-08-28T20:00:17.789Z,1.85
2022-08-28T20:02:45.155Z,2.00
2022-08-28T20:05:11.791Z,1.80
2022-08-28T20:07:38.541Z,1.50
2022-08-28T20:10:06.039Z,1.55
2022-08-28T20:12:33.188Z,2.05
2022-08-28T20:15:03.228Z,2.00
2022-08-28T20:17:30.440Z,2.03
2022-08-28T20:20:02.469Z,1.90
2022-08-28T20:22:32.018Z,1.75
2022-08-28T20:24:58.901Z,1.90
2022-08-28T20:27:25.962Z,2.00
2022-08-28T20:29:52.749Z,1.85
2022-08-28T20:32:19.408Z,1.88
2022-08-28T20:34:45.975Z,1.70
2022-08-28T20:37:12.585Z,1.88
2022-08-28T20:39:41.784Z,1.92
2022-08-28T20:42:09.887Z,1.85
2022-08-28T20:44:36.850Z,1.98
2022-08-28T20:47:04.740Z,2.00
2022-08-28T20:49:31.387Z,1.92
2022-08-28T20:52:00.943Z,1.80
2022-08-28T20:54:32.472Z,2.10
2022-08-28T20:57:02.440Z,1.88
2022-08-28T20:59:39.174Z,2.03
2022-08-28T21:02:22.190Z,2.58
2022-08-28T21:04:49.176Z,2.10
2022-08-28T21:07:18.025Z,2.13
2022-08-28T21:10:04.848Z,2.22
2022-08-28T21:14:59.117Z,3.42
2022-08-28T21:17:30.826Z,3.80
2022-08-28T21:20:04.571Z,3.53
2022-08-28T21:22:36.203Z,3.70
2022-08-28T21:25:09.238Z,4.00
2022-08-28T21:27:42.607Z,3.83
2022-08-28T21:30:12.999Z,4.40
2022-08-28T21:32:43.079Z,3.38
2022-08-28T21:35:12.165Z,2.70
2022-08-28T21:37:41.383Z,2.05
2022-08-28T21:40:14.003Z,2.00
2022-08-28T21:42:41.183Z,1.80
2022-08-28T21:45:13.250Z,2.00
2022-08-28T21:47:42.550Z,1.70
2022-08-28T21:50:10.934Z,1.98
2022-08-28T21:52:44.561Z,2.08
2022-08-28T21:55:14.906Z,1.90
2022-08-28T21:57:42.592Z,2.08
2022-08-28T22:00:26.506Z,1.70
2022-08-28T22:02:53.203Z,2.55
2022-08-28T22:05:20.485Z,2.10
2022-08-28T22:07:47.278Z,2.25
2022-08-28T22:10:14.089Z,2.25
2022-08-28T22:12:40.766Z,2.15
2022-08-28T22:15:07.597Z,1.83
2022-08-28T22:17:34.219Z,1.88
2022-08-28T22:20:00.872Z,1.92
2022-08-28T22:22:46.048Z,2.20
2022-08-28T22:25:12.760Z,1.98
2022-08-28T22:27:39.395Z,1.85
2022-08-28T22:30:06.304Z,1.83
2022-08-28T22:32:33.425Z,1.92
2022-08-28T22:34:59.994Z,1.90
2022-08-28T22:37:26.871Z,1.63
2022-08-28T22:39:53.898Z,1.75
2022-08-28T22:42:20.520Z,1.58
2022-08-28T22:44:47.432Z,1.70
2022-08-28T22:47:14.113Z,2.03
2022-08-28T22:49:41.035Z,1.75
2022-08-28T22:52:10.716Z,1.80
2022-08-28T22:54:37.798Z,2.20
2022-08-28T22:57:05.830Z,1.80
2022-08-28T22:59:32.811Z,1.80
2022-08-28T23:01:59.408Z,2.03
2022-08-28T23:04:26.836Z,1.63
2022-08-28T23:06:53.556Z,1.60
2022-08-28T23:09:23.023Z,1.80
2022-08-28T23:11:49.769Z,1.90
2022-08-28T23:14:17.347Z,2.00
2022-08-28T23:16:45.110Z,2.00
2022-08-28T23:19:13.538Z,1.95
2022-08-28T23:21:43.613Z,1.95
2022-08-28T23:24:12.428Z,1.77
2022-08-28T23:26:39.352Z,2.30
2022-08-28T23:29:06.149Z,2.05
2022-08-28T23:31:32.920Z,1.80
2022-08-28T23:33:59.830Z,1.90
2022-08-28T23:36:26.510Z,1.88
2022-08-28T23:38:53.184Z,2.00
2022-08-28T23:41:19.978Z,1.88
2022-08-28T23:43:47.247Z,1.95
2022-08-28T23:46:16.579Z,2.33
2022-08-28T23:48:43.493Z,2.08
2022-08-28T23:51:13.597Z,1.83
2022-08-28T23:53:42.634Z,1.95
2022-08-28T23:56:09.769Z,2.10
2022-08-28T23:58:36.539Z,2.10
